sensor_id;sensor_type;location;lat;lon;timestamp;P1;durP1;ratioP1;P2;durP2;ratioP2
22955;SDS011;40888;48.148;11.526;2023-04-01T00:00:28;1.20;;;0.50;;
22955;SDS011;40888;48.148;11.526;2023-04-01T00:02:55;2.20;;;0.70;;
22955;SDS011;40888;48.148;11.526;2023-04-01T00:05:21;0.93;;;0.60;;
22955;SDS011;40888;48.148;11.526;2023-04-01T00:07:49;1.53;;;0.50;;
22955;SDS011;40888;48.148;11.526;2023-04-01T00:10:15;0.93;;;0.60;;
22955;SDS011;40888;48.148;11.526;2023-04-01T00:12:41;2.10;;;0.60;;
22955;SDS011;40888;48.148;11.526;2023-04-01T00:15:08;2.43;;;0.60;;
22955;SDS011;40888;48.148;11.526;2023-04-01T00:17:35;1.57;;;0.80;;
22955;SDS011;40888;48.148;11.526;2023-04-01T00:20:02;1.83;;;0.90;;
22955;SDS011;40888;48.148;11.526;2023-04-01T00:22:28;1.60;;;0.53;;
22955;SDS011;40888;48.148;11.526;2023-04-01T00:24:53;1.10;;;0.60;;
22955;SDS011;40888;48.148;11.526;2023-04-01T00:27:19;2.60;;;0.73;;
22955;SDS011;40888;48.148;11.526;2023-04-01T00:29:46;1.87;;;0.50;;
22955;SDS011;40888;48.148;11.526;2023-04-01T00:32:13;2.10;;;0.80;;
22955;SDS011;40888;48.148;11.526;2023-04-01T00:34:39;1.43;;;0.40;;
22955;SDS011;40888;48.148;11.526;2023-04-01T00:37:05;1.17;;;0.50;;
22955;SDS011;40888;48.148;11.526;2023-04-01T00:39:32;1.43;;;0.40;;
22955;SDS011;40888;48.148;11.526;2023-04-01T00:41:59;3.03;;;0.90;;
22955;SDS011;40888;48.148;11.526;2023-04-01T00:44:30;3.03;;;0.80;;
22955;SDS011;40888;48.148;11.526;2023-04-01T00:46:58;1.90;;;0.70;;
22955;SDS011;40888;48.148;11.526;2023-04-01T00:49:30;2.83;;;0.97;;
22955;SDS011;40888;48.148;11.526;2023-04-01T00:52:03;2.10;;;0.77;;
22955;SDS011;40888;48.148;11.526;2023-04-01T00:54:30;1.80;;;0.73;;
22955;SDS011;40888;48.148;11.526;2023-04-01T00:57:05;2.27;;;1.00;;
22955;SDS011;40888;48.148;11.526;2023-04-01T00:59:44;1.43;;;0.73;;
22955;SDS011;40888;48.148;11.526;2023-04-01T01:02:13;2.10;;;0.90;;
22955;SDS011;40888;48.148;11.526;2023-04-01T01:04:40;3.57;;;0.97;;
22955;SDS011;40888;48.148;11.526;2023-04-01T01:12:53;3.93;;;1.07;;
22955;SDS011;40888;48.148;11.526;2023-04-01T01:15:12;2.10;;;0.73;;
22955;SDS011;40888;48.148;11.526;2023-04-01T01:31:34;1.93;;;1.03;;
22955;SDS011;40888;48.148;11.526;2023-04-01T01:36:57;3.37;;;0.90;;
22955;SDS011;40888;48.148;11.526;2023-04-01T01:39:30;1.87;;;0.70;;
22955;SDS011;40888;48.148;11.526;2023-04-01T01:42:00;2.10;;;0.77;;
22955;SDS011;40888;48.148;11.526;2023-04-01T01:44:32;1.93;;;0.70;;
22955;SDS011;40888;48.148;11.526;2023-04-01T01:47:00;1.83;;;0.60;;
22955;SDS011;40888;48.148;11.526;2023-04-01T01:49:27;2.27;;;0.80;;
22955;SDS011;40888;48.148;11.526;2023-04-01T01:51:55;2.27;;;0.70;;
22955;SDS011;40888;48.148;11.526;2023-04-01T01:54:21;1.47;;;0.77;;
22955;SDS011;40888;48.148;11.526;2023-04-01T01:56:48;2.07;;;0.80;;
22955;SDS011;40888;48.148;11.526;2023-04-01T01:59:17;2.20;;;0.73;;
22955;SDS011;40888;48.148;11.526;2023-04-01T02:01:47;2.77;;;1.00;;
22955;SDS011;40888;48.148;11.526;2023-04-01T02:04:15;1.73;;;0.50;;
22955;SDS011;40888;48.148;11.526;2023-04-01T02:06:48;1.20;;;0.50;;
22955;SDS011;40888;48.148;11.526;2023-04-01T02:09:21;1.80;;;1.00;;
22955;SDS011;40888;48.148;11.526;2023-04-01T02:11:55;1.97;;;0.60;;
22955;SDS011;40888;48.148;11.526;2023-04-01T02:14:35;3.43;;;0.90;;
22955;SDS011;40888;48.148;11.526;2023-04-01T02:17:21;1.00;;;0.50;;
22955;SDS011;40888;48.148;11.526;2023-04-01T02:19:52;1.27;;;0.67;;
22955;SDS011;40888;48.148;11.526;2023-04-01T02:22:24;1.80;;;0.63;;
22955;SDS011;40888;48.148;11.526;2023-04-01T02:24:57;0.87;;;0.50;;
22955;SDS011;40888;48.148;11.526;2023-04-01T02:27:25;1.90;;;0.50;;
22955;SDS011;40888;48.148;11.526;2023-04-01T02:29:51;1.73;;;0.70;;
22955;SDS011;40888;48.148;11.526;2023-04-01T02:32:18;0.47;;;0.40;;
22955;SDS011;40888;48.148;11.526;2023-04-01T02:34:45;1.50;;;0.43;;
22955;SDS011;40888;48.148;11.526;2023-04-01T02:37:12;1.40;;;0.43;;
22955;SDS011;40888;48.148;11.526;2023-04-01T02:39:38;1.17;;;0.40;;
22955;SDS011;40888;48.148;11.526;2023-04-01T02:42:04;0.33;;;0.33;;
22955;SDS011;40888;48.148;11.526;2023-04-01T02:44:30;1.50;;;0.53;;
22955;SDS011;40888;48.148;11.526;2023-04-01T02:46:56;0.60;;;0.30;;
22955;SDS011;40888;48.148;11.526;2023-04-01T02:49:22;0.97;;;0.50;;
22955;SDS011;40888;48.148;11.526;2023-04-01T02:51:48;0.97;;;0.43;;
22955;SDS011;40888;48.148;11.526;2023-04-01T02:54:13;0.50;;;0.30;;
22955;SDS011;40888;48.148;11.526;2023-04-01T02:56:39;0.83;;;0.60;;
22955;SDS011;40888;48.148;11.526;2023-04-01T02:59:05;1.70;;;0.40;;
22955;SDS011;40888;48.148;11.526;2023-04-01T03:01:31;0.30;;;0.30;;
22955;SDS011;40888;48.148;11.526;2023-04-01T03:03:56;1.47;;;0.40;;
22955;SDS011;40888;48.148;11.526;2023-04-01T03:06:22;0.57;;;0.30;;
22955;SDS011;40888;48.148;11.526;2023-04-01T03:08:48;1.00;;;0.60;;
22955;SDS011;40888;48.148;11.526;2023-04-01T03:11:14;2.17;;;0.50;;
22955;SDS011;40888;48.148;11.526;2023-04-01T03:13:40;0.50;;;0.40;;
22955;SDS011;40888;48.148;11.526;2023-04-01T03:16:05;0.20;;;0.20;;
22955;SDS011;40888;48.148;11.526;2023-04-01T03:18:31;0.77;;;0.20;;
22955;SDS011;40888;48.148;11.526;2023-04-01T03:20:57;0.40;;;0.30;;
22955;SDS011;40888;48.148;11.526;2023-04-01T03:23:37;0.40;;;0.10;;
22955;SDS011;40888;48.148;11.526;2023-04-01T03:26:03;0.27;;;0.27;;
22955;SDS011;40888;48.148;11.526;2023-04-01T03:28:29;0.93;;;0.30;;
22955;SDS011;40888;48.148;11.526;2023-04-01T03:30:54;0.20;;;0.20;;
22955;SDS011;40888;48.148;11.526;2023-04-01T03:33:20;0.30;;;0.30;;
22955;SDS011;40888;48.148;11.526;2023-04-01T03:35:46;0.33;;;0.17;;
22955;SDS011;40888;48.148;11.526;2023-04-01T03:38:12;0.30;;;0.20;;
22955;SDS011;40888;48.148;11.526;2023-04-01T03:40:38;0.50;;;0.30;;
22955;SDS011;40888;48.148;11.526;2023-04-01T03:43:07;0.27;;;0.27;;
22955;SDS011;40888;48.148;11.526;2023-04-01T03:45:35;1.10;;;0.37;;
22955;SDS011;40888;48.148;11.526;2023-04-01T03:48:01;1.23;;;0.23;;
22955;SDS011;40888;48.148;11.526;2023-04-01T03:50:27;0.20;;;0.20;;
22955;SDS011;40888;48.148;11.526;2023-04-01T03:52:52;0.57;;;0.30;;
22955;SDS011;40888;48.148;11.526;2023-04-01T03:55:18;0.40;;;0.13;;
22955;SDS011;40888;48.148;11.526;2023-04-01T03:57:44;0.20;;;0.20;;
22955;SDS011;40888;48.148;11.526;2023-04-01T04:00:10;0.60;;;0.33;;
22955;SDS011;40888;48.148;11.526;2023-04-01T04:02:36;3.90;;;0.70;;
22955;SDS011;40888;48.148;11.526;2023-04-01T04:05:02;1.17;;;0.47;;
22955;SDS011;40888;48.148;11.526;2023-04-01T04:07:28;0.90;;;0.23;;
22955;SDS011;40888;48.148;11.526;2023-04-01T04:09:53;1.07;;;0.70;;
22955;SDS011;40888;48.148;11.526;2023-04-01T04:12:19;0.43;;;0.30;;
22955;SDS011;40888;48.148;11.526;2023-04-01T04:14:45;0.63;;;0.50;;
22955;SDS011;40888;48.148;11.526;2023-04-01T04:17:11;1.10;;;0.60;;
22955;SDS011;40888;48.148;11.526;2023-04-01T04:19:41;1.27;;;0.40;;
22955;SDS011;40888;48.148;11.526;2023-04-01T04:22:07;1.07;;;0.30;;
22955;SDS011;40888;48.148;11.526;2023-04-01T04:24:36;1.50;;;0.30;;
22955;SDS011;40888;48.148;11.526;2023-04-01T04:27:02;0.50;;;0.23;;
22955;SDS011;40888;48.148;11.526;2023-04-01T04:29:29;1.60;;;0.40;;
22955;SDS011;40888;48.148;11.526;2023-04-01T04:31:54;1.13;;;0.50;;
22955;SDS011;40888;48.148;11.526;2023-04-01T04:34:20;1.80;;;0.70;;
22955;SDS011;40888;48.148;11.526;2023-04-01T04:36:47;1.77;;;0.40;;
22955;SDS011;40888;48.148;11.526;2023-04-01T04:39:14;0.73;;;0.50;;
22955;SDS011;40888;48.148;11.526;2023-04-01T04:41:40;1.57;;;0.50;;
22955;SDS011;40888;48.148;11.526;2023-04-01T04:44:06;1.07;;;0.50;;
22955;SDS011;40888;48.148;11.526;2023-04-01T04:46:32;1.37;;;0.30;;
22955;SDS011;40888;48.148;11.526;2023-04-01T04:48:58;0.90;;;0.40;;
22955;SDS011;40888;48.148;11.526;2023-04-01T04:51:24;2.07;;;0.50;;
22955;SDS011;40888;48.148;11.526;2023-04-01T04:53:49;0.33;;;0.30;;
22955;SDS011;40888;48.148;11.526;2023-04-01T04:56:21;1.03;;;0.60;;
22955;SDS011;40888;48.148;11.526;2023-04-01T04:58:50;0.97;;;0.43;;
22955;SDS011;40888;48.148;11.526;2023-04-01T05:01:16;1.67;;;0.60;;
22955;SDS011;40888;48.148;11.526;2023-04-01T05:03:42;1.73;;;0.53;;
22955;SDS011;40888;48.148;11.526;2023-04-01T05:06:09;1.40;;;0.50;;
22955;SDS011;40888;48.148;11.526;2023-04-01T05:08:37;0.30;;;0.30;;
22955;SDS011;40888;48.148;11.526;2023-04-01T05:11:06;0.40;;;0.40;;
22955;SDS011;40888;48.148;11.526;2023-04-01T05:13:35;1.20;;;0.30;;
22955;SDS011;40888;48.148;11.526;2023-04-01T05:16:01;0.53;;;0.53;;
22955;SDS011;40888;48.148;11.526;2023-04-01T05:18:27;0.73;;;0.50;;
22955;SDS011;40888;48.148;11.526;2023-04-01T05:20:53;2.30;;;0.67;;
22955;SDS011;40888;48.148;11.526;2023-04-01T05:23:20;1.27;;;0.60;;
22955;SDS011;40888;48.148;11.526;2023-04-01T05:25:47;0.57;;;0.50;;
22955;SDS011;40888;48.148;11.526;2023-04-01T05:28:14;2.50;;;0.60;;
22955;SDS011;40888;48.148;11.526;2023-04-01T05:30:40;1.10;;;0.50;;
22955;SDS011;40888;48.148;11.526;2023-04-01T05:33:07;2.27;;;0.60;;
22955;SDS011;40888;48.148;11.526;2023-04-01T05:35:33;2.40;;;0.70;;
22955;SDS011;40888;48.148;11.526;2023-04-01T05:37:59;1.77;;;0.60;;
22955;SDS011;40888;48.148;11.526;2023-04-01T05:40:24;1.50;;;0.73;;
22955;SDS011;40888;48.148;11.526;2023-04-01T05:42:50;1.13;;;0.63;;
22955;SDS011;40888;48.148;11.526;2023-04-01T05:45:16;1.13;;;0.70;;
22955;SDS011;40888;48.148;11.526;2023-04-01T05:47:42;1.33;;;0.70;;
22955;SDS011;40888;48.148;11.526;2023-04-01T05:50:10;1.07;;;0.50;;
22955;SDS011;40888;48.148;11.526;2023-04-01T05:52:36;1.40;;;0.70;;
22955;SDS011;40888;48.148;11.526;2023-04-01T05:55:03;0.70;;;0.60;;
22955;SDS011;40888;48.148;11.526;2023-04-01T05:57:29;4.63;;;0.80;;
22955;SDS011;40888;48.148;11.526;2023-04-01T05:59:55;0.60;;;0.50;;
22955;SDS011;40888;48.148;11.526;2023-04-01T06:02:21;1.43;;;0.63;;
22955;SDS011;40888;48.148;11.526;2023-04-01T06:04:46;1.77;;;0.63;;
22955;SDS011;40888;48.148;11.526;2023-04-01T06:07:13;2.97;;;0.93;;
22955;SDS011;40888;48.148;11.526;2023-04-01T06:09:40;1.23;;;0.70;;
22955;SDS011;40888;48.148;11.526;2023-04-01T06:28:07;3.07;;;0.97;;
22955;SDS011;40888;48.148;11.526;2023-04-01T06:34:15;2.93;;;0.60;;
22955;SDS011;40888;48.148;11.526;2023-04-01T06:41:57;1.97;;;0.57;;
22955;SDS011;40888;48.148;11.526;2023-04-01T06:44:35;1.87;;;0.97;;
22955;SDS011;40888;48.148;11.526;2023-04-01T06:47:26;3.97;;;0.70;;
22955;SDS011;40888;48.148;11.526;2023-04-01T06:52:42;3.00;;;0.87;;
22955;SDS011;40888;48.148;11.526;2023-04-01T06:58:03;0.97;;;0.57;;
22955;SDS011;40888;48.148;11.526;2023-04-01T07:00:36;1.47;;;0.70;;
22955;SDS011;40888;48.148;11.526;2023-04-01T07:05:41;1.50;;;0.40;;
22955;SDS011;40888;48.148;11.526;2023-04-01T07:08:12;3.77;;;0.97;;
22955;SDS011;40888;48.148;11.526;2023-04-01T07:13:17;1.50;;;0.60;;
22955;SDS011;40888;48.148;11.526;2023-04-01T07:15:58;1.40;;;0.80;;
22955;SDS011;40888;48.148;11.526;2023-04-01T07:18:38;1.97;;;0.60;;
22955;SDS011;40888;48.148;11.526;2023-04-01T07:24:03;1.83;;;0.60;;
22955;SDS011;40888;48.148;11.526;2023-04-01T07:26:31;1.63;;;0.60;;
22955;SDS011;40888;48.148;11.526;2023-04-01T07:28:57;2.33;;;0.50;;
22955;SDS011;40888;48.148;11.526;2023-04-01T07:31:37;2.27;;;0.47;;
22955;SDS011;40888;48.148;11.526;2023-04-01T07:34:29;1.37;;;0.40;;
22955;SDS011;40888;48.148;11.526;2023-04-01T07:37:07;0.87;;;0.60;;
22955;SDS011;40888;48.148;11.526;2023-04-01T07:42:33;1.10;;;0.50;;
22955;SDS011;40888;48.148;11.526;2023-04-01T07:46:21;1.03;;;0.57;;
22955;SDS011;40888;48.148;11.526;2023-04-01T07:48:26;0.30;;;0.20;;
22955;SDS011;40888;48.148;11.526;2023-04-01T07:53:46;0.70;;;0.40;;
22955;SDS011;40888;48.148;11.526;2023-04-01T07:56:19;0.30;;;0.30;;
22955;SDS011;40888;48.148;11.526;2023-04-01T07:59:21;0.63;;;0.30;;
22955;SDS011;40888;48.148;11.526;2023-04-01T08:01:55;0.77;;;0.40;;
22955;SDS011;40888;48.148;11.526;2023-04-01T08:10:30;0.73;;;0.20;;
22955;SDS011;40888;48.148;11.526;2023-04-01T08:16:12;0.27;;;0.10;;
22955;SDS011;40888;48.148;11.526;2023-04-01T08:18:51;1.70;;;0.30;;
22955;SDS011;40888;48.148;11.526;2023-04-01T08:21:32;0.60;;;0.43;;
22955;SDS011;40888;48.148;11.526;2023-04-01T08:24:10;0.50;;;0.10;;
22955;SDS011;40888;48.148;11.526;2023-04-01T08:26:51;0.63;;;0.20;;
22955;SDS011;40888;48.148;11.526;2023-04-01T08:29:22;0.20;;;0.20;;
22955;SDS011;40888;48.148;11.526;2023-04-01T08:31:54;1.57;;;0.30;;
22955;SDS011;40888;48.148;11.526;2023-04-01T08:34:53;0.53;;;0.37;;
22955;SDS011;40888;48.148;11.526;2023-04-01T08:37:34;0.67;;;0.20;;
22955;SDS011;40888;48.148;11.526;2023-04-01T08:40:22;0.53;;;0.30;;
22955;SDS011;40888;48.148;11.526;2023-04-01T08:49:00;4.80;;;0.60;;
22955;SDS011;40888;48.148;11.526;2023-04-01T08:57:01;1.33;;;0.40;;
22955;SDS011;40888;48.148;11.526;2023-04-01T08:59:47;0.10;;;0.03;;
22955;SDS011;40888;48.148;11.526;2023-04-01T09:02:30;1.07;;;0.13;;
22955;SDS011;40888;48.148;11.526;2023-04-01T09:13:35;0.73;;;0.30;;
22955;SDS011;40888;48.148;11.526;2023-04-01T09:19:43;0.30;;;0.10;;
22955;SDS011;40888;48.148;11.526;2023-04-01T09:22:22;0.07;;;0.07;;
22955;SDS011;40888;48.148;11.526;2023-04-01T09:27:44;0.43;;;0.20;;
22955;SDS011;40888;48.148;11.526;2023-04-01T09:30:19;1.80;;;0.50;;
22955;SDS011;40888;48.148;11.526;2023-04-01T09:33:21;0.73;;;0.10;;
22955;SDS011;40888;48.148;11.526;2023-04-01T09:38:57;0.10;;;0.10;;
22955;SDS011;40888;48.148;11.526;2023-04-01T09:41:29;0.80;;;0.30;;
22955;SDS011;40888;48.148;11.526;2023-04-01T10:18:07;0.20;;;0.20;;
22955;SDS011;40888;48.148;11.526;2023-04-01T10:23:54;0.23;;;0.10;;
22955;SDS011;40888;48.148;11.526;2023-04-01T10:34:42;0.20;;;0.20;;
22955;SDS011;40888;48.148;11.526;2023-04-01T10:48:26;0.30;;;0.30;;
22955;SDS011;40888;48.148;11.526;2023-04-01T11:03:35;0.20;;;0.20;;
22955;SDS011;40888;48.148;11.526;2023-04-01T11:12:09;0.00;;;0.00;;
22955;SDS011;40888;48.148;11.526;2023-04-01T11:14:59;0.10;;;0.10;;
22955;SDS011;40888;48.148;11.526;2023-04-01T11:21:15;0.03;;;0.00;;
22955;SDS011;40888;48.148;11.526;2023-04-01T11:27:16;0.20;;;0.00;;
22955;SDS011;40888;48.148;11.526;2023-04-01T11:32:52;0.10;;;0.10;;
22955;SDS011;40888;48.148;11.526;2023-04-01T11:38:02;0.10;;;0.10;;
22955;SDS011;40888;48.148;11.526;2023-04-01T11:40:47;0.10;;;0.10;;
22955;SDS011;40888;48.148;11.526;2023-04-01T11:57:38;0.10;;;0.10;;
22955;SDS011;40888;48.148;11.526;2023-04-01T12:00:40;0.10;;;0.03;;
22955;SDS011;40888;48.148;11.526;2023-04-01T12:06:57;0.10;;;0.10;;
22955;SDS011;40888;48.148;11.526;2023-04-01T12:09:42;0.57;;;0.30;;
22955;SDS011;40888;48.148;11.526;2023-04-01T12:15:14;0.00;;;0.00;;
22955;SDS011;40888;48.148;11.526;2023-04-01T12:18:05;0.40;;;0.00;;
22955;SDS011;40888;48.148;11.526;2023-04-01T12:20:49;0.00;;;0.00;;
22955;SDS011;40888;48.148;11.526;2023-04-01T12:32:27;0.20;;;0.10;;
22955;SDS011;40888;48.148;11.526;2023-04-01T12:40:56;0.30;;;0.10;;
22955;SDS011;40888;48.148;11.526;2023-04-01T12:49:50;0.50;;;0.30;;
22955;SDS011;40888;48.148;11.526;2023-04-01T12:52:15;0.17;;;0.17;;
22955;SDS011;40888;48.148;11.526;2023-04-01T13:19:45;1.80;;;0.30;;
22955;SDS011;40888;48.148;11.526;2023-04-01T13:22:15;0.20;;;0.20;;
22955;SDS011;40888;48.148;11.526;2023-04-01T13:27:42;0.30;;;0.30;;
22955;SDS011;40888;48.148;11.526;2023-04-01T13:33:04;0.40;;;0.40;;
22955;SDS011;40888;48.148;11.526;2023-04-01T13:35:56;0.17;;;0.17;;
22955;SDS011;40888;48.148;11.526;2023-04-01T13:38:57;1.03;;;0.50;;
22955;SDS011;40888;48.148;11.526;2023-04-01T13:50:25;0.23;;;0.23;;
22955;SDS011;40888;48.148;11.526;2023-04-01T13:55:40;0.40;;;0.40;;
22955;SDS011;40888;48.148;11.526;2023-04-01T14:01:22;0.37;;;0.20;;
22955;SDS011;40888;48.148;11.526;2023-04-01T14:06:56;0.23;;;0.20;;
22955;SDS011;40888;48.148;11.526;2023-04-01T14:17:25;0.20;;;0.20;;
22955;SDS011;40888;48.148;11.526;2023-04-01T14:20:13;1.07;;;0.50;;
22955;SDS011;40888;48.148;11.526;2023-04-01T14:29:04;0.43;;;0.30;;
22955;SDS011;40888;48.148;11.526;2023-04-01T14:31:41;0.43;;;0.20;;
22955;SDS011;40888;48.148;11.526;2023-04-01T14:42:53;0.33;;;0.23;;
22955;SDS011;40888;48.148;11.526;2023-04-01T14:45:52;0.40;;;0.40;;
22955;SDS011;40888;48.148;11.526;2023-04-01T14:48:49;0.27;;;0.27;;
22955;SDS011;40888;48.148;11.526;2023-04-01T14:51:23;1.20;;;0.50;;
22955;SDS011;40888;48.148;11.526;2023-04-01T14:54:08;0.30;;;0.30;;
22955;SDS011;40888;48.148;11.526;2023-04-01T14:56:38;0.40;;;0.30;;
22955;SDS011;40888;48.148;11.526;2023-04-01T14:59:10;0.20;;;0.20;;
22955;SDS011;40888;48.148;11.526;2023-04-01T15:01:45;0.73;;;0.40;;
22955;SDS011;40888;48.148;11.526;2023-04-01T15:04:37;0.33;;;0.20;;
22955;SDS011;40888;48.148;11.526;2023-04-01T15:24:35;0.70;;;0.30;;
22955;SDS011;40888;48.148;11.526;2023-04-01T15:27:32;1.20;;;0.37;;
22955;SDS011;40888;48.148;11.526;2023-04-01T15:30:15;0.30;;;0.30;;
22955;SDS011;40888;48.148;11.526;2023-04-01T15:35:58;0.90;;;0.40;;
22955;SDS011;40888;48.148;11.526;2023-04-01T15:41:28;1.20;;;0.30;;
22955;SDS011;40888;48.148;11.526;2023-04-01T15:49:52;0.37;;;0.23;;
22955;SDS011;40888;48.148;11.526;2023-04-01T15:52:24;0.30;;;0.30;;
22955;SDS011;40888;48.148;11.526;2023-04-01T16:00:27;0.30;;;0.27;;
22955;SDS011;40888;48.148;11.526;2023-04-01T16:11:22;0.30;;;0.17;;
22955;SDS011;40888;48.148;11.526;2023-04-01T16:33:15;0.40;;;0.27;;
22955;SDS011;40888;48.148;11.526;2023-04-01T16:36:06;0.13;;;0.13;;
22955;SDS011;40888;48.148;11.526;2023-04-01T16:38:50;0.83;;;0.40;;
22955;SDS011;40888;48.148;11.526;2023-04-01T16:41:46;0.50;;;0.40;;
22955;SDS011;40888;48.148;11.526;2023-04-01T16:44:18;0.40;;;0.40;;
22955;SDS011;40888;48.148;11.526;2023-04-01T16:46:50;0.40;;;0.40;;
22955;SDS011;40888;48.148;11.526;2023-04-01T16:52:29;0.77;;;0.43;;
22955;SDS011;40888;48.148;11.526;2023-04-01T16:55:01;0.20;;;0.20;;
22955;SDS011;40888;48.148;11.526;2023-04-01T16:57:50;0.43;;;0.43;;
22955;SDS011;40888;48.148;11.526;2023-04-01T17:00:22;0.90;;;0.50;;
22955;SDS011;40888;48.148;11.526;2023-04-01T17:05:36;0.90;;;0.30;;
22955;SDS011;40888;48.148;11.526;2023-04-01T17:08:17;0.60;;;0.50;;
22955;SDS011;40888;48.148;11.526;2023-04-01T17:11:00;1.17;;;0.27;;
22955;SDS011;40888;48.148;11.526;2023-04-01T17:13:33;1.53;;;0.50;;
22955;SDS011;40888;48.148;11.526;2023-04-01T17:19:18;0.30;;;0.30;;
22955;SDS011;40888;48.148;11.526;2023-04-01T17:22:17;0.60;;;0.33;;
22955;SDS011;40888;48.148;11.526;2023-04-01T17:27:46;0.30;;;0.30;;
22955;SDS011;40888;48.148;11.526;2023-04-01T17:30:28;0.53;;;0.53;;
22955;SDS011;40888;48.148;11.526;2023-04-01T17:36:09;0.73;;;0.40;;
22955;SDS011;40888;48.148;11.526;2023-04-01T17:38:54;0.20;;;0.20;;
22955;SDS011;40888;48.148;11.526;2023-04-01T17:44:19;0.20;;;0.20;;
22955;SDS011;40888;48.148;11.526;2023-04-01T18:01:20;0.50;;;0.50;;
22955;SDS011;40888;48.148;11.526;2023-04-01T18:06:25;0.60;;;0.57;;
22955;SDS011;40888;48.148;11.526;2023-04-01T18:23:19;0.57;;;0.47;;
22955;SDS011;40888;48.148;11.526;2023-04-01T18:26:05;0.47;;;0.47;;
22955;SDS011;40888;48.148;11.526;2023-04-01T18:28:39;0.30;;;0.30;;
22955;SDS011;40888;48.148;11.526;2023-04-01T18:31:15;0.40;;;0.40;;
22955;SDS011;40888;48.148;11.526;2023-04-01T18:36:44;0.60;;;0.60;;
22955;SDS011;40888;48.148;11.526;2023-04-01T18:39:35;2.57;;;0.53;;
22955;SDS011;40888;48.148;11.526;2023-04-01T18:42:16;1.13;;;0.40;;
22955;SDS011;40888;48.148;11.526;2023-04-01T18:47:18;0.30;;;0.30;;
22955;SDS011;40888;48.148;11.526;2023-04-01T18:52:42;0.73;;;0.30;;
22955;SDS011;40888;48.148;11.526;2023-04-01T18:58:06;0.77;;;0.40;;
22955;SDS011;40888;48.148;11.526;2023-04-01T19:00:38;0.83;;;0.60;;
22955;SDS011;40888;48.148;11.526;2023-04-01T19:05:55;0.93;;;0.73;;
22955;SDS011;40888;48.148;11.526;2023-04-01T19:08:38;0.90;;;0.67;;
22955;SDS011;40888;48.148;11.526;2023-04-01T19:11:18;0.60;;;0.60;;
22955;SDS011;40888;48.148;11.526;2023-04-01T19:13:56;0.63;;;0.60;;
22955;SDS011;40888;48.148;11.526;2023-04-01T19:16:57;1.13;;;0.70;;
22955;SDS011;40888;48.148;11.526;2023-04-01T19:20:13;1.50;;;1.00;;
22955;SDS011;40888;48.148;11.526;2023-04-01T19:28:19;1.30;;;0.70;;
22955;SDS011;40888;48.148;11.526;2023-04-01T19:30:59;1.50;;;0.70;;
22955;SDS011;40888;48.148;11.526;2023-04-01T19:33:58;1.87;;;0.60;;
22955;SDS011;40888;48.148;11.526;2023-04-01T19:36:53;0.67;;;0.50;;
22955;SDS011;40888;48.148;11.526;2023-04-01T19:53:17;1.53;;;0.80;;
22955;SDS011;40888;48.148;11.526;2023-04-01T20:01:13;1.10;;;0.57;;
22955;SDS011;40888;48.148;11.526;2023-04-01T20:03:57;1.53;;;1.00;;
22955;SDS011;40888;48.148;11.526;2023-04-01T20:06:43;2.23;;;1.07;;
22955;SDS011;40888;48.148;11.526;2023-04-01T20:15:00;0.60;;;0.60;;
22955;SDS011;40888;48.148;11.526;2023-04-01T20:17:30;0.90;;;0.90;;
22955;SDS011;40888;48.148;11.526;2023-04-01T20:22:53;2.13;;;0.80;;
22955;SDS011;40888;48.148;11.526;2023-04-01T20:25:43;0.87;;;0.70;;
22955;SDS011;40888;48.148;11.526;2023-04-01T20:44:46;0.60;;;0.60;;
22955;SDS011;40888;48.148;11.526;2023-04-01T20:49:54;1.27;;;0.80;;
22955;SDS011;40888;48.148;11.526;2023-04-01T21:03:37;0.70;;;0.70;;
22955;SDS011;40888;48.148;11.526;2023-04-01T21:08:51;1.20;;;1.10;;
22955;SDS011;40888;48.148;11.526;2023-04-01T21:17:04;2.03;;;1.00;;
22955;SDS011;40888;48.148;11.526;2023-04-01T21:23:04;0.60;;;0.60;;
22955;SDS011;40888;48.148;11.526;2023-04-01T21:25:58;0.77;;;0.40;;
22955;SDS011;40888;48.148;11.526;2023-04-01T21:31:35;0.90;;;0.60;;
22955;SDS011;40888;48.148;11.526;2023-04-01T21:40:18;1.17;;;0.47;;
22955;SDS011;40888;48.148;11.526;2023-04-01T21:48:37;0.40;;;0.30;;
22955;SDS011;40888;48.148;11.526;2023-04-01T21:51:30;1.23;;;0.70;;
22955;SDS011;40888;48.148;11.526;2023-04-01T21:56:58;0.60;;;0.40;;
22955;SDS011;40888;48.148;11.526;2023-04-01T22:05:28;1.20;;;0.93;;
22955;SDS011;40888;48.148;11.526;2023-04-01T22:10:45;0.40;;;0.40;;
22955;SDS011;40888;48.148;11.526;2023-04-01T22:13:38;1.03;;;0.60;;
22955;SDS011;40888;48.148;11.526;2023-04-01T22:16:14;0.80;;;0.70;;
22955;SDS011;40888;48.148;11.526;2023-04-01T22:27:03;0.50;;;0.50;;
22955;SDS011;40888;48.148;11.526;2023-04-01T22:29:37;1.50;;;0.73;;
22955;SDS011;40888;48.148;11.526;2023-04-01T22:32:21;1.17;;;0.40;;
22955;SDS011;40888;48.148;11.526;2023-04-01T22:40:56;0.77;;;0.43;;
22955;SDS011;40888;48.148;11.526;2023-04-01T22:43:37;0.50;;;0.50;;
22955;SDS011;40888;48.148;11.526;2023-04-01T22:51:54;0.30;;;0.30;;
22955;SDS011;40888;48.148;11.526;2023-04-01T22:54:29;0.83;;;0.60;;
22955;SDS011;40888;48.148;11.526;2023-04-01T22:57:32;0.60;;;0.40;;
22955;SDS011;40888;48.148;11.526;2023-04-01T23:05:39;0.90;;;0.50;;
22955;SDS011;40888;48.148;11.526;2023-04-01T23:08:32;1.60;;;0.53;;
22955;SDS011;40888;48.148;11.526;2023-04-01T23:11:27;0.87;;;0.53;;
22955;SDS011;40888;48.148;11.526;2023-04-01T23:24:44;0.80;;;0.70;;
22955;SDS011;40888;48.148;11.526;2023-04-01T23:27:19;2.23;;;0.60;;
22955;SDS011;40888;48.148;11.526;2023-04-01T23:29:50;0.83;;;0.60;;
22955;SDS011;40888;48.148;11.526;2023-04-01T23:32:23;0.47;;;0.47;;
22955;SDS011;40888;48.148;11.526;2023-04-01T23:34:52;0.83;;;0.53;;
22955;SDS011;40888;48.148;11.526;2023-04-01T23:37:20;0.50;;;0.40;;
22955;SDS011;40888;48.148;11.526;2023-04-01T23:39:50;1.03;;;0.60;;
22955;SDS011;40888;48.148;11.526;2023-04-01T23:42:25;0.70;;;0.43;;
22955;SDS011;40888;48.148;11.526;2023-04-01T23:44:57;1.23;;;0.53;;
22955;SDS011;40888;48.148;11.526;2023-04-01T23:47:35;0.77;;;0.57;;
22955;SDS011;40888;48.148;11.526;2023-04-01T23:50:04;0.43;;;0.43;;
22955;SDS011;40888;48.148;11.526;2023-04-01T23:52:38;1.23;;;0.50;;
22955;SDS011;40888;48.148;11.526;2023-04-01T23:55:17;2.13;;;0.73;;
